sensor_id;sensor_type;location;lat;lon;timestamp;P1;durP1;ratioP1;P2;durP2;ratioP2
81807;SDS011;71241;13.676;100.700;2023-11-22T00:01:57;30.45;;;22.75;;
81807;SDS011;71241;13.676;100.700;2023-11-22T00:04:27;37.05;;;25.27;;
81807;SDS011;71241;13.676;100.700;2023-11-22T00:06:58;37.15;;;24.48;;
81807;SDS011;71241;13.676;100.700;2023-11-22T00:09:29;36.95;;;25.88;;
81807;SDS011;71241;13.676;100.700;2023-11-22T00:12:02;35.03;;;26.60;;
81807;SDS011;71241;13.676;100.700;2023-11-22T00:14:34;41.28;;;26.48;;
81807;SDS011;71241;13.676;100.700;2023-11-22T00:17:07;37.65;;;26.13;;
81807;SDS011;71241;13.676;100.700;2023-11-22T00:19:37;39.65;;;28.63;;
81807;SDS011;71241;13.676;100.700;2023-11-22T00:22:09;35.67;;;25.67;;
81807;SDS011;71241;13.676;100.700;2023-11-22T00:24:43;35.92;;;25.83;;
81807;SDS011;71241;13.676;100.700;2023-11-22T00:27:19;36.00;;;24.23;;
81807;SDS011;71241;13.676;100.700;2023-11-22T00:29:51;34.63;;;25.48;;
81807;SDS011;71241;13.676;100.700;2023-11-22T00:32:23;36.85;;;23.73;;
81807;SDS011;71241;13.676;100.700;2023-11-22T00:34:57;31.73;;;22.95;;
81807;SDS011;71241;13.676;100.700;2023-11-22T00:37:28;26.90;;;20.98;;
81807;SDS011;71241;13.676;100.700;2023-11-22T00:39:59;31.80;;;20.80;;
81807;SDS011;71241;13.676;100.700;2023-11-22T00:42:35;28.10;;;20.85;;
81807;SDS011;71241;13.676;100.700;2023-11-22T00:45:07;25.85;;;18.73;;
81807;SDS011;71241;13.676;100.700;2023-11-22T00:47:40;32.05;;;20.25;;
81807;SDS011;71241;13.676;100.700;2023-11-22T00:50:11;27.50;;;18.80;;
81807;SDS011;71241;13.676;100.700;2023-11-22T00:52:43;26.52;;;20.55;;
81807;SDS011;71241;13.676;100.700;2023-11-22T00:55:14;26.25;;;19.45;;
81807;SDS011;71241;13.676;100.700;2023-11-22T00:57:48;29.00;;;19.90;;
81807;SDS011;71241;13.676;100.700;2023-11-22T01:00:18;27.55;;;17.73;;
81807;SDS011;71241;13.676;100.700;2023-11-22T01:02:51;27.50;;;24.60;;
81807;SDS011;71241;13.676;100.700;2023-11-22T01:05:22;29.38;;;18.38;;
81807;SDS011;71241;13.676;100.700;2023-11-22T01:07:53;28.30;;;21.48;;
81807;SDS011;71241;13.676;100.700;2023-11-22T01:10:25;31.08;;;20.60;;
81807;SDS011;71241;13.676;100.700;2023-11-22T01:12:57;28.27;;;19.38;;
81807;SDS011;71241;13.676;100.700;2023-11-22T01:15:28;31.77;;;19.70;;
81807;SDS011;71241;13.676;100.700;2023-11-22T01:18:00;30.27;;;20.92;;
81807;SDS011;71241;13.676;100.700;2023-11-22T01:20:32;27.85;;;19.92;;
81807;SDS011;71241;13.676;100.700;2023-11-22T01:23:04;31.60;;;19.75;;
81807;SDS011;71241;13.676;100.700;2023-11-22T01:25:34;29.23;;;18.40;;
81807;SDS011;71241;13.676;100.700;2023-11-22T01:28:05;25.10;;;19.27;;
81807;SDS011;71241;13.676;100.700;2023-11-22T01:30:36;30.02;;;19.98;;
81807;SDS011;71241;13.676;100.700;2023-11-22T01:33:09;27.05;;;18.27;;
81807;SDS011;71241;13.676;100.700;2023-11-22T01:35:40;29.23;;;18.20;;
81807;SDS011;71241;13.676;100.700;2023-11-22T01:38:11;26.75;;;18.00;;
81807;SDS011;71241;13.676;100.700;2023-11-22T01:40:43;27.90;;;18.85;;
81807;SDS011;71241;13.676;100.700;2023-11-22T01:43:16;26.65;;;18.15;;
81807;SDS011;71241;13.676;100.700;2023-11-22T01:45:47;24.27;;;16.95;;
81807;SDS011;71241;13.676;100.700;2023-11-22T01:48:20;24.70;;;17.00;;
81807;SDS011;71241;13.676;100.700;2023-11-22T01:53:21;25.70;;;16.58;;
81807;SDS011;71241;13.676;100.700;2023-11-22T01:55:53;21.52;;;13.77;;
81807;SDS011;71241;13.676;100.700;2023-11-22T01:58:24;18.13;;;15.00;;
81807;SDS011;71241;13.676;100.700;2023-11-22T02:00:54;20.17;;;13.57;;
81807;SDS011;71241;13.676;100.700;2023-11-22T02:03:27;21.90;;;14.13;;
81807;SDS011;71241;13.676;100.700;2023-11-22T02:05:59;18.17;;;12.80;;
81807;SDS011;71241;13.676;100.700;2023-11-22T02:08:32;23.17;;;12.57;;
81807;SDS011;71241;13.676;100.700;2023-11-22T02:11:04;22.48;;;13.30;;
81807;SDS011;71241;13.676;100.700;2023-11-22T02:13:35;22.83;;;17.70;;
81807;SDS011;71241;13.676;100.700;2023-11-22T02:16:06;22.30;;;17.38;;
81807;SDS011;71241;13.676;100.700;2023-11-22T02:18:38;17.63;;;10.98;;
81807;SDS011;71241;13.676;100.700;2023-11-22T02:21:11;13.43;;;10.10;;
81807;SDS011;71241;13.676;100.700;2023-11-22T02:23:43;16.45;;;11.00;;
81807;SDS011;71241;13.676;100.700;2023-11-22T02:26:15;20.52;;;10.45;;
81807;SDS011;71241;13.676;100.700;2023-11-22T02:28:49;18.55;;;9.30;;
81807;SDS011;71241;13.676;100.700;2023-11-22T02:31:20;10.93;;;7.50;;
81807;SDS011;71241;13.676;100.700;2023-11-22T02:33:51;15.75;;;8.00;;
81807;SDS011;71241;13.676;100.700;2023-11-22T02:36:24;15.77;;;10.73;;
81807;SDS011;71241;13.676;100.700;2023-11-22T02:38:57;11.38;;;8.68;;
81807;SDS011;71241;13.676;100.700;2023-11-22T02:41:28;13.82;;;7.68;;
81807;SDS011;71241;13.676;100.700;2023-11-22T02:43:59;10.32;;;6.78;;
81807;SDS011;71241;13.676;100.700;2023-11-22T02:46:30;12.68;;;7.72;;
81807;SDS011;71241;13.676;100.700;2023-11-22T02:49:02;14.98;;;7.88;;
81807;SDS011;71241;13.676;100.700;2023-11-22T02:51:33;12.95;;;6.95;;
81807;SDS011;71241;13.676;100.700;2023-11-22T02:54:06;12.55;;;6.63;;
81807;SDS011;71241;13.676;100.700;2023-11-22T02:56:36;10.27;;;6.35;;
81807;SDS011;71241;13.676;100.700;2023-11-22T02:59:07;8.40;;;6.72;;
81807;SDS011;71241;13.676;100.700;2023-11-22T03:01:42;12.68;;;6.80;;
81807;SDS011;71241;13.676;100.700;2023-11-22T03:04:15;10.18;;;6.93;;
81807;SDS011;71241;13.676;100.700;2023-11-22T03:06:45;11.50;;;7.03;;
81807;SDS011;71241;13.676;100.700;2023-11-22T03:09:26;11.32;;;7.55;;
81807;SDS011;71241;13.676;100.700;2023-11-22T03:11:57;10.05;;;7.88;;
81807;SDS011;71241;13.676;100.700;2023-11-22T03:14:28;12.13;;;7.40;;
81807;SDS011;71241;13.676;100.700;2023-11-22T03:16:58;11.30;;;6.47;;
81807;SDS011;71241;13.676;100.700;2023-11-22T03:19:33;9.00;;;6.53;;
81807;SDS011;71241;13.676;100.700;2023-11-22T03:22:04;10.40;;;7.43;;
81807;SDS011;71241;13.676;100.700;2023-11-22T03:24:37;10.43;;;6.20;;
81807;SDS011;71241;13.676;100.700;2023-11-22T03:27:08;10.60;;;7.20;;
81807;SDS011;71241;13.676;100.700;2023-11-22T03:29:39;9.95;;;6.90;;
81807;SDS011;71241;13.676;100.700;2023-11-22T03:32:10;10.35;;;6.60;;
81807;SDS011;71241;13.676;100.700;2023-11-22T03:34:41;10.40;;;6.45;;
81807;SDS011;71241;13.676;100.700;2023-11-22T03:37:11;9.98;;;6.20;;
81807;SDS011;71241;13.676;100.700;2023-11-22T03:39:44;11.45;;;6.47;;
81807;SDS011;71241;13.676;100.700;2023-11-22T03:42:17;9.00;;;7.15;;
81807;SDS011;71241;13.676;100.700;2023-11-22T03:44:48;10.90;;;6.80;;
81807;SDS011;71241;13.676;100.700;2023-11-22T03:47:21;11.10;;;6.60;;
81807;SDS011;71241;13.676;100.700;2023-11-22T03:49:52;12.07;;;7.30;;
81807;SDS011;71241;13.676;100.700;2023-11-22T03:52:23;9.98;;;6.47;;
81807;SDS011;71241;13.676;100.700;2023-11-22T03:54:55;12.77;;;7.15;;
81807;SDS011;71241;13.676;100.700;2023-11-22T03:57:27;10.05;;;7.85;;
81807;SDS011;71241;13.676;100.700;2023-11-22T03:59:58;12.00;;;6.55;;
81807;SDS011;71241;13.676;100.700;2023-11-22T04:02:28;11.32;;;7.03;;
81807;SDS011;71241;13.676;100.700;2023-11-22T04:04:59;11.90;;;8.10;;
81807;SDS011;71241;13.676;100.700;2023-11-22T04:07:30;12.85;;;8.32;;
81807;SDS011;71241;13.676;100.700;2023-11-22T04:10:04;13.98;;;8.32;;
81807;SDS011;71241;13.676;100.700;2023-11-22T04:12:36;10.13;;;8.48;;
81807;SDS011;71241;13.676;100.700;2023-11-22T04:15:07;9.68;;;6.88;;
81807;SDS011;71241;13.676;100.700;2023-11-22T04:17:39;10.98;;;7.53;;
81807;SDS011;71241;13.676;100.700;2023-11-22T04:20:11;10.13;;;6.15;;
81807;SDS011;71241;13.676;100.700;2023-11-22T04:22:44;9.45;;;6.85;;
81807;SDS011;71241;13.676;100.700;2023-11-22T04:25:17;16.02;;;7.22;;
81807;SDS011;71241;13.676;100.700;2023-11-22T04:30:17;11.52;;;7.53;;
81807;SDS011;71241;13.676;100.700;2023-11-22T04:32:48;14.25;;;8.90;;
81807;SDS011;71241;13.676;100.700;2023-11-22T04:35:19;10.20;;;7.47;;
81807;SDS011;71241;13.676;100.700;2023-11-22T04:37:49;11.25;;;7.28;;
81807;SDS011;71241;13.676;100.700;2023-11-22T04:40:22;8.68;;;7.10;;
81807;SDS011;71241;13.676;100.700;2023-11-22T04:42:53;11.95;;;7.25;;
81807;SDS011;71241;13.676;100.700;2023-11-22T04:45:24;12.30;;;7.85;;
81807;SDS011;71241;13.676;100.700;2023-11-22T04:47:54;11.77;;;6.65;;
81807;SDS011;71241;13.676;100.700;2023-11-22T04:50:26;8.85;;;7.00;;
81807;SDS011;71241;13.676;100.700;2023-11-22T04:52:57;9.23;;;7.70;;
81807;SDS011;71241;13.676;100.700;2023-11-22T04:55:30;11.18;;;6.45;;
81807;SDS011;71241;13.676;100.700;2023-11-22T04:58:01;10.85;;;8.43;;
81807;SDS011;71241;13.676;100.700;2023-11-22T05:00:32;10.35;;;6.75;;
81807;SDS011;71241;13.676;100.700;2023-11-22T05:03:03;9.05;;;8.00;;
81807;SDS011;71241;13.676;100.700;2023-11-22T05:05:34;8.77;;;6.03;;
81807;SDS011;71241;13.676;100.700;2023-11-22T05:08:05;10.93;;;6.25;;
81807;SDS011;71241;13.676;100.700;2023-11-22T05:10:41;11.45;;;6.97;;
81807;SDS011;71241;13.676;100.700;2023-11-22T05:13:13;8.15;;;6.65;;
81807;SDS011;71241;13.676;100.700;2023-11-22T05:15:44;9.23;;;6.95;;
81807;SDS011;71241;13.676;100.700;2023-11-22T05:18:27;8.93;;;6.78;;
81807;SDS011;71241;13.676;100.700;2023-11-22T05:21:07;11.45;;;6.97;;
81807;SDS011;71241;13.676;100.700;2023-11-22T05:23:38;11.68;;;7.65;;
81807;SDS011;71241;13.676;100.700;2023-11-22T05:26:14;13.45;;;8.73;;
81807;SDS011;71241;13.676;100.700;2023-11-22T05:28:45;9.30;;;7.03;;
81807;SDS011;71241;13.676;100.700;2023-11-22T05:31:16;9.98;;;6.55;;
81807;SDS011;71241;13.676;100.700;2023-11-22T05:33:47;8.77;;;6.18;;
81807;SDS011;71241;13.676;100.700;2023-11-22T05:36:18;8.48;;;6.47;;
81807;SDS011;71241;13.676;100.700;2023-11-22T05:38:49;9.55;;;6.30;;
81807;SDS011;71241;13.676;100.700;2023-11-22T05:41:22;12.60;;;7.38;;
81807;SDS011;71241;13.676;100.700;2023-11-22T05:43:53;8.68;;;7.28;;
81807;SDS011;71241;13.676;100.700;2023-11-22T05:46:23;8.63;;;6.18;;
81807;SDS011;71241;13.676;100.700;2023-11-22T05:48:54;10.27;;;9.25;;
81807;SDS011;71241;13.676;100.700;2023-11-22T05:51:25;10.07;;;9.13;;
81807;SDS011;71241;13.676;100.700;2023-11-22T05:53:56;9.05;;;6.30;;
81807;SDS011;71241;13.676;100.700;2023-11-22T05:56:28;9.98;;;6.28;;
81807;SDS011;71241;13.676;100.700;2023-11-22T05:58:59;7.47;;;5.55;;
81807;SDS011;71241;13.676;100.700;2023-11-22T06:01:30;8.38;;;5.22;;
81807;SDS011;71241;13.676;100.700;2023-11-22T06:04:00;7.93;;;5.50;;
81807;SDS011;71241;13.676;100.700;2023-11-22T06:06:32;9.35;;;5.90;;
81807;SDS011;71241;13.676;100.700;2023-11-22T06:09:03;8.15;;;5.63;;
81807;SDS011;71241;13.676;100.700;2023-11-22T06:11:39;9.23;;;5.93;;
81807;SDS011;71241;13.676;100.700;2023-11-22T06:14:10;8.77;;;6.18;;
81807;SDS011;71241;13.676;100.700;2023-11-22T06:16:41;8.07;;;6.57;;
81807;SDS011;71241;13.676;100.700;2023-11-22T06:19:12;7.85;;;6.28;;
81807;SDS011;71241;13.676;100.700;2023-11-22T06:21:43;8.43;;;6.97;;
81807;SDS011;71241;13.676;100.700;2023-11-22T06:24:15;17.77;;;13.35;;
81807;SDS011;71241;13.676;100.700;2023-11-22T06:26:47;8.90;;;6.15;;
81807;SDS011;71241;13.676;100.700;2023-11-22T06:29:19;6.13;;;5.40;;
81807;SDS011;71241;13.676;100.700;2023-11-22T06:31:50;7.55;;;6.43;;
81807;SDS011;71241;13.676;100.700;2023-11-22T06:34:21;11.82;;;7.20;;
81807;SDS011;71241;13.676;100.700;2023-11-22T06:36:52;10.57;;;6.72;;
81807;SDS011;71241;13.676;100.700;2023-11-22T06:39:23;10.07;;;7.28;;
81807;SDS011;71241;13.676;100.700;2023-11-22T06:41:56;9.65;;;8.25;;
81807;SDS011;71241;13.676;100.700;2023-11-22T06:44:27;12.10;;;7.97;;
81807;SDS011;71241;13.676;100.700;2023-11-22T06:46:58;11.82;;;7.15;;
81807;SDS011;71241;13.676;100.700;2023-11-22T06:49:29;10.98;;;6.90;;
81807;SDS011;71241;13.676;100.700;2023-11-22T06:51:59;10.73;;;7.13;;
81807;SDS011;71241;13.676;100.700;2023-11-22T06:54:30;11.55;;;6.65;;
81807;SDS011;71241;13.676;100.700;2023-11-22T06:57:03;10.98;;;7.05;;
81807;SDS011;71241;13.676;100.700;2023-11-22T06:59:34;7.47;;;6.68;;
81807;SDS011;71241;13.676;100.700;2023-11-22T07:02:05;9.75;;;8.10;;
81807;SDS011;71241;13.676;100.700;2023-11-22T07:04:36;12.00;;;7.00;;
81807;SDS011;71241;13.676;100.700;2023-11-22T07:07:08;12.18;;;6.50;;
81807;SDS011;71241;13.676;100.700;2023-11-22T07:09:41;11.85;;;7.45;;
81807;SDS011;71241;13.676;100.700;2023-11-22T07:12:15;9.73;;;7.00;;
81807;SDS011;71241;13.676;100.700;2023-11-22T07:14:48;9.40;;;7.80;;
81807;SDS011;71241;13.676;100.700;2023-11-22T07:17:19;11.88;;;6.82;;
81807;SDS011;71241;13.676;100.700;2023-11-22T07:19:51;9.23;;;6.55;;
81807;SDS011;71241;13.676;100.700;2023-11-22T07:22:25;9.02;;;5.75;;
81807;SDS011;71241;13.676;100.700;2023-11-22T07:24:57;10.80;;;6.53;;
81807;SDS011;71241;13.676;100.700;2023-11-22T07:27:35;7.75;;;6.20;;
81807;SDS011;71241;13.676;100.700;2023-11-22T07:30:07;9.30;;;6.25;;
81807;SDS011;71241;13.676;100.700;2023-11-22T07:32:38;7.63;;;6.57;;
81807;SDS011;71241;13.676;100.700;2023-11-22T07:35:09;8.80;;;6.10;;
81807;SDS011;71241;13.676;100.700;2023-11-22T07:37:41;8.52;;;6.18;;
81807;SDS011;71241;13.676;100.700;2023-11-22T07:40:12;8.73;;;6.60;;
81807;SDS011;71241;13.676;100.700;2023-11-22T07:42:44;23.63;;;8.38;;
81807;SDS011;71241;13.676;100.700;2023-11-22T07:45:15;13.48;;;7.22;;
81807;SDS011;71241;13.676;100.700;2023-11-22T07:47:46;10.90;;;7.63;;
81807;SDS011;71241;13.676;100.700;2023-11-22T07:50:17;13.15;;;12.05;;
81807;SDS011;71241;13.676;100.700;2023-11-22T07:52:48;9.25;;;6.65;;
81807;SDS011;71241;13.676;100.700;2023-11-22T07:55:19;7.88;;;6.65;;
81807;SDS011;71241;13.676;100.700;2023-11-22T07:57:53;13.80;;;7.18;;
81807;SDS011;71241;13.676;100.700;2023-11-22T08:00:32;9.38;;;6.50;;
81807;SDS011;71241;13.676;100.700;2023-11-22T08:03:11;10.30;;;5.93;;
81807;SDS011;71241;13.676;100.700;2023-11-22T08:05:49;11.07;;;6.72;;
81807;SDS011;71241;13.676;100.700;2023-11-22T08:08:23;10.73;;;6.57;;
81807;SDS011;71241;13.676;100.700;2023-11-22T08:10:56;9.18;;;7.10;;
81807;SDS011;71241;13.676;100.700;2023-11-22T08:13:29;10.13;;;7.60;;
81807;SDS011;71241;13.676;100.700;2023-11-22T08:18:29;8.70;;;7.38;;
81807;SDS011;71241;13.676;100.700;2023-11-22T08:21:00;12.00;;;8.23;;
81807;SDS011;71241;13.676;100.700;2023-11-22T08:23:33;8.05;;;6.57;;
81807;SDS011;71241;13.676;100.700;2023-11-22T08:26:04;11.23;;;7.38;;
81807;SDS011;71241;13.676;100.700;2023-11-22T08:28:37;9.52;;;6.43;;
81807;SDS011;71241;13.676;100.700;2023-11-22T08:31:08;7.05;;;6.15;;
81807;SDS011;71241;13.676;100.700;2023-11-22T08:33:39;10.25;;;6.97;;
81807;SDS011;71241;13.676;100.700;2023-11-22T08:36:10;11.85;;;6.93;;
81807;SDS011;71241;13.676;100.700;2023-11-22T08:38:41;6.93;;;6.22;;
81807;SDS011;71241;13.676;100.700;2023-11-22T08:41:13;10.90;;;6.30;;
81807;SDS011;71241;13.676;100.700;2023-11-22T08:43:46;14.48;;;7.60;;
81807;SDS011;71241;13.676;100.700;2023-11-22T08:46:17;7.97;;;6.18;;
81807;SDS011;71241;13.676;100.700;2023-11-22T08:48:48;10.18;;;6.38;;
81807;SDS011;71241;13.676;100.700;2023-11-22T08:51:20;8.88;;;6.80;;
81807;SDS011;71241;13.676;100.700;2023-11-22T08:53:51;11.73;;;6.75;;
81807;SDS011;71241;13.676;100.700;2023-11-22T08:56:22;10.70;;;6.38;;
81807;SDS011;71241;13.676;100.700;2023-11-22T08:58:55;8.95;;;6.65;;
81807;SDS011;71241;13.676;100.700;2023-11-22T09:01:26;8.05;;;5.72;;
81807;SDS011;71241;13.676;100.700;2023-11-22T09:03:57;9.88;;;6.63;;
81807;SDS011;71241;13.676;100.700;2023-11-22T09:06:31;6.57;;;5.93;;
81807;SDS011;71241;13.676;100.700;2023-11-22T09:09:03;9.35;;;6.10;;
81807;SDS011;71241;13.676;100.700;2023-11-22T09:11:35;7.35;;;6.18;;
81807;SDS011;71241;13.676;100.700;2023-11-22T09:14:08;11.90;;;6.50;;
81807;SDS011;71241;13.676;100.700;2023-11-22T09:16:39;9.35;;;7.07;;
81807;SDS011;71241;13.676;100.700;2023-11-22T09:19:10;10.15;;;6.20;;
81807;SDS011;71241;13.676;100.700;2023-11-22T09:21:41;11.80;;;7.30;;
81807;SDS011;71241;13.676;100.700;2023-11-22T09:24:12;11.30;;;7.70;;
81807;SDS011;71241;13.676;100.700;2023-11-22T09:26:42;8.15;;;7.15;;
81807;SDS011;71241;13.676;100.700;2023-11-22T09:29:18;9.65;;;6.55;;
81807;SDS011;71241;13.676;100.700;2023-11-22T09:31:49;11.45;;;8.02;;
81807;SDS011;71241;13.676;100.700;2023-11-22T09:34:21;9.73;;;7.47;;
81807;SDS011;71241;13.676;100.700;2023-11-22T09:36:52;11.98;;;7.03;;
81807;SDS011;71241;13.676;100.700;2023-11-22T09:39:23;9.95;;;6.75;;
81807;SDS011;71241;13.676;100.700;2023-11-22T09:41:54;10.88;;;6.78;;
81807;SDS011;71241;13.676;100.700;2023-11-22T09:44:26;10.15;;;7.65;;
81807;SDS011;71241;13.676;100.700;2023-11-22T09:46:57;9.73;;;6.60;;
81807;SDS011;71241;13.676;100.700;2023-11-22T09:49:27;7.78;;;6.45;;
81807;SDS011;71241;13.676;100.700;2023-11-22T09:52:00;8.90;;;6.30;;
81807;SDS011;71241;13.676;100.700;2023-11-22T09:54:36;12.10;;;6.78;;
81807;SDS011;71241;13.676;100.700;2023-11-22T09:57:09;8.13;;;7.22;;
81807;SDS011;71241;13.676;100.700;2023-11-22T09:59:42;8.65;;;6.93;;
81807;SDS011;71241;13.676;100.700;2023-11-22T10:02:13;9.30;;;6.88;;
81807;SDS011;71241;13.676;100.700;2023-11-22T10:04:44;11.77;;;7.45;;
81807;SDS011;71241;13.676;100.700;2023-11-22T10:07:16;10.45;;;6.82;;
81807;SDS011;71241;13.676;100.700;2023-11-22T10:09:47;14.60;;;8.23;;
81807;SDS011;71241;13.676;100.700;2023-11-22T10:12:20;10.45;;;7.15;;
81807;SDS011;71241;13.676;100.700;2023-11-22T10:14:53;8.98;;;7.28;;
81807;SDS011;71241;13.676;100.700;2023-11-22T10:19:53;9.13;;;7.68;;
81807;SDS011;71241;13.676;100.700;2023-11-22T10:22:24;17.35;;;8.88;;
81807;SDS011;71241;13.676;100.700;2023-11-22T10:24:58;12.30;;;8.38;;
81807;SDS011;71241;13.676;100.700;2023-11-22T10:27:30;12.20;;;7.55;;
81807;SDS011;71241;13.676;100.700;2023-11-22T10:30:02;11.13;;;8.35;;
81807;SDS011;71241;13.676;100.700;2023-11-22T10:32:34;12.20;;;7.63;;
81807;SDS011;71241;13.676;100.700;2023-11-22T10:35:05;12.02;;;8.85;;
81807;SDS011;71241;13.676;100.700;2023-11-22T10:37:37;14.60;;;8.35;;
81807;SDS011;71241;13.676;100.700;2023-11-22T10:40:08;10.35;;;7.45;;
81807;SDS011;71241;13.676;100.700;2023-11-22T10:42:40;10.32;;;7.60;;
81807;SDS011;71241;13.676;100.700;2023-11-22T10:45:16;16.08;;;8.52;;
81807;SDS011;71241;13.676;100.700;2023-11-22T10:47:47;12.35;;;8.35;;
81807;SDS011;71241;13.676;100.700;2023-11-22T10:50:20;14.80;;;7.57;;
81807;SDS011;71241;13.676;100.700;2023-11-22T10:52:51;10.40;;;8.38;;
81807;SDS011;71241;13.676;100.700;2023-11-22T10:58:46;13.75;;;7.78;;
81807;SDS011;71241;13.676;100.700;2023-11-22T11:01:19;11.80;;;8.38;;
81807;SDS011;71241;13.676;100.700;2023-11-22T11:03:53;10.98;;;8.15;;
81807;SDS011;71241;13.676;100.700;2023-11-22T11:06:26;14.25;;;9.85;;
81807;SDS011;71241;13.676;100.700;2023-11-22T11:09:02;14.30;;;12.65;;
81807;SDS011;71241;13.676;100.700;2023-11-22T11:14:17;12.50;;;10.00;;
81807;SDS011;71241;13.676;100.700;2023-11-22T11:16:50;12.43;;;8.38;;
81807;SDS011;71241;13.676;100.700;2023-11-22T11:19:23;14.65;;;13.15;;
81807;SDS011;71241;13.676;100.700;2023-11-22T11:21:54;17.15;;;10.27;;
81807;SDS011;71241;13.676;100.700;2023-11-22T11:24:28;16.15;;;12.23;;
81807;SDS011;71241;13.676;100.700;2023-11-22T11:26:58;12.27;;;11.02;;
81807;SDS011;71241;13.676;100.700;2023-11-22T11:29:32;13.98;;;9.18;;
81807;SDS011;71241;13.676;100.700;2023-11-22T11:34:39;15.57;;;11.40;;
81807;SDS011;71241;13.676;100.700;2023-11-22T11:37:19;14.88;;;8.07;;
81807;SDS011;71241;13.676;100.700;2023-11-22T11:39:53;14.52;;;8.18;;
81807;SDS011;71241;13.676;100.700;2023-11-22T11:42:23;14.98;;;8.93;;
81807;SDS011;71241;13.676;100.700;2023-11-22T11:45:04;15.75;;;7.78;;
81807;SDS011;71241;13.676;100.700;2023-11-22T11:47:37;13.05;;;8.63;;
81807;SDS011;71241;13.676;100.700;2023-11-22T11:52:38;16.40;;;10.88;;
81807;SDS011;71241;13.676;100.700;2023-11-22T11:55:09;19.42;;;11.25;;
81807;SDS011;71241;13.676;100.700;2023-11-22T11:57:40;18.02;;;9.85;;
81807;SDS011;71241;13.676;100.700;2023-11-22T12:00:11;21.75;;;10.50;;
81807;SDS011;71241;13.676;100.700;2023-11-22T12:02:45;19.33;;;11.07;;
81807;SDS011;71241;13.676;100.700;2023-11-22T12:07:49;20.17;;;9.15;;
81807;SDS011;71241;13.676;100.700;2023-11-22T12:10:20;17.50;;;9.90;;
81807;SDS011;71241;13.676;100.700;2023-11-22T12:12:53;13.77;;;9.98;;
81807;SDS011;71241;13.676;100.700;2023-11-22T12:15:26;12.77;;;9.43;;
81807;SDS011;71241;13.676;100.700;2023-11-22T12:18:00;16.10;;;10.48;;
81807;SDS011;71241;13.676;100.700;2023-11-22T12:20:31;20.80;;;10.60;;
81807;SDS011;71241;13.676;100.700;2023-11-22T12:23:01;21.98;;;10.10;;
81807;SDS011;71241;13.676;100.700;2023-11-22T12:25:35;17.60;;;10.48;;
81807;SDS011;71241;13.676;100.700;2023-11-22T12:28:06;16.85;;;10.52;;
81807;SDS011;71241;13.676;100.700;2023-11-22T12:30:36;14.98;;;9.95;;
81807;SDS011;71241;13.676;100.700;2023-11-22T12:33:10;15.50;;;8.95;;
81807;SDS011;71241;13.676;100.700;2023-11-22T12:35:52;16.15;;;8.40;;
81807;SDS011;71241;13.676;100.700;2023-11-22T12:38:23;19.63;;;10.60;;
81807;SDS011;71241;13.676;100.700;2023-11-22T12:40:56;19.17;;;12.85;;
81807;SDS011;71241;13.676;100.700;2023-11-22T12:46:09;16.27;;;9.65;;
81807;SDS011;71241;13.676;100.700;2023-11-22T12:48:44;17.02;;;9.38;;
81807;SDS011;71241;13.676;100.700;2023-11-22T12:51:15;16.40;;;12.45;;
81807;SDS011;71241;13.676;100.700;2023-11-22T12:53:55;16.77;;;14.63;;
81807;SDS011;71241;13.676;100.700;2023-11-22T12:56:26;21.17;;;14.43;;
81807;SDS011;71241;13.676;100.700;2023-11-22T12:58:57;15.07;;;10.70;;
81807;SDS011;71241;13.676;100.700;2023-11-22T13:01:28;15.05;;;10.90;;
81807;SDS011;71241;13.676;100.700;2023-11-22T13:04:01;13.98;;;12.57;;
81807;SDS011;71241;13.676;100.700;2023-11-22T13:06:32;19.35;;;12.82;;
81807;SDS011;71241;13.676;100.700;2023-11-22T13:09:03;19.77;;;13.82;;
81807;SDS011;71241;13.676;100.700;2023-11-22T13:11:35;21.13;;;12.98;;
81807;SDS011;71241;13.676;100.700;2023-11-22T13:14:06;25.08;;;14.40;;
81807;SDS011;71241;13.676;100.700;2023-11-22T13:16:36;22.25;;;14.32;;
81807;SDS011;71241;13.676;100.700;2023-11-22T13:19:09;21.52;;;14.93;;
81807;SDS011;71241;13.676;100.700;2023-11-22T13:21:40;22.13;;;15.57;;
81807;SDS011;71241;13.676;100.700;2023-11-22T13:24:10;21.77;;;14.35;;
81807;SDS011;71241;13.676;100.700;2023-11-22T13:26:43;21.58;;;14.00;;
81807;SDS011;71241;13.676;100.700;2023-11-22T13:29:17;22.23;;;14.40;;
81807;SDS011;71241;13.676;100.700;2023-11-22T13:31:54;19.88;;;13.45;;
81807;SDS011;71241;13.676;100.700;2023-11-22T13:34:27;19.30;;;14.73;;
81807;SDS011;71241;13.676;100.700;2023-11-22T13:36:58;19.40;;;13.85;;
81807;SDS011;71241;13.676;100.700;2023-11-22T13:39:28;20.15;;;16.38;;
81807;SDS011;71241;13.676;100.700;2023-11-22T13:42:02;23.92;;;16.23;;
81807;SDS011;71241;13.676;100.700;2023-11-22T13:44:33;20.25;;;15.80;;
81807;SDS011;71241;13.676;100.700;2023-11-22T13:47:04;22.48;;;20.17;;
81807;SDS011;71241;13.676;100.700;2023-11-22T13:49:38;22.05;;;12.77;;
81807;SDS011;71241;13.676;100.700;2023-11-22T13:52:11;24.77;;;16.35;;
81807;SDS011;71241;13.676;100.700;2023-11-22T13:54:42;24.85;;;14.95;;
81807;SDS011;71241;13.676;100.700;2023-11-22T13:57:12;18.95;;;14.23;;
81807;SDS011;71241;13.676;100.700;2023-11-22T13:59:44;23.85;;;12.65;;
81807;SDS011;71241;13.676;100.700;2023-11-22T14:02:14;16.88;;;13.23;;
81807;SDS011;71241;13.676;100.700;2023-11-22T14:04:47;20.42;;;13.80;;
81807;SDS011;71241;13.676;100.700;2023-11-22T14:07:18;20.63;;;13.93;;
81807;SDS011;71241;13.676;100.700;2023-11-22T14:09:49;17.92;;;12.80;;
81807;SDS011;71241;13.676;100.700;2023-11-22T14:12:20;18.27;;;14.10;;
81807;SDS011;71241;13.676;100.700;2023-11-22T14:14:51;17.70;;;12.75;;
81807;SDS011;71241;13.676;100.700;2023-11-22T14:17:24;20.10;;;15.18;;
81807;SDS011;71241;13.676;100.700;2023-11-22T14:19:57;21.98;;;13.50;;
81807;SDS011;71241;13.676;100.700;2023-11-22T14:22:28;18.98;;;13.45;;
81807;SDS011;71241;13.676;100.700;2023-11-22T14:24:59;20.75;;;15.60;;
81807;SDS011;71241;13.676;100.700;2023-11-22T14:27:30;21.30;;;14.07;;
81807;SDS011;71241;13.676;100.700;2023-11-22T14:30:03;21.77;;;14.13;;
81807;SDS011;71241;13.676;100.700;2023-11-22T14:32:36;27.73;;;16.10;;
81807;SDS011;71241;13.676;100.700;2023-11-22T14:35:09;20.48;;;13.57;;
81807;SDS011;71241;13.676;100.700;2023-11-22T14:37:41;23.02;;;13.90;;
81807;SDS011;71241;13.676;100.700;2023-11-22T14:40:14;24.63;;;15.55;;
81807;SDS011;71241;13.676;100.700;2023-11-22T14:42:52;19.48;;;14.20;;
81807;SDS011;71241;13.676;100.700;2023-11-22T14:45:23;21.42;;;13.23;;
81807;SDS011;71241;13.676;100.700;2023-11-22T14:47:55;19.58;;;13.35;;
81807;SDS011;71241;13.676;100.700;2023-11-22T14:50:29;20.60;;;14.02;;
81807;SDS011;71241;13.676;100.700;2023-11-22T14:53:02;16.98;;;13.07;;
81807;SDS011;71241;13.676;100.700;2023-11-22T14:55:34;21.38;;;13.57;;
81807;SDS011;71241;13.676;100.700;2023-11-22T14:58:09;17.05;;;15.13;;
81807;SDS011;71241;13.676;100.700;2023-11-22T15:00:41;20.40;;;18.23;;